Flight Track Log - Related Links

Times and Time Zones

All times are in EDT time to prevent confusion due to time zone crossing. See the QTR38 flight status page for this flight to view local times or setup timezone preferences in your user account.

Time Position Orientation Groundspeed Altitude Reporting Facility
EDT Latitude Longitude Course Direction KTS MPH feet Rate Location/Type
Sun 04:32:08 PM 45.6580 8.7290 359° North 173 199 1,900  Level FlightAware ADS-B
Sun 04:32:33 PM 45.6770 8.7290 360° North 171 197 2,700 1,800 Climbing FlightAware ADS-B
Sun 04:32:48 PM 45.6890 8.7290 360° North 174 200 3,100 1,543 Climbing FlightAware ADS-B
Sun 04:33:08 PM 45.7040 8.7290 360° North 176 203 3,600 1,050 Climbing FlightAware ADS-B
Sun 04:33:28 PM 45.7210 8.7400 24° Northeast 200 230 3,800 857 Climbing FlightAware ADS-B
Sun 04:33:43 PM 45.7300 8.7580 54° Northeast 220 253 4,100 960 Climbing FlightAware ADS-B
Sun 04:33:53 PM 45.7320 8.7730 79° East 229 264 4,200 1,000 Climbing FlightAware ADS-B
Sun 04:34:13 PM 45.7260 8.8060 105° East 260 299 4,600 2,000 Climbing FlightAware ADS-B
Sun 04:34:38 PM 45.7180 8.8460 106° East 266 306 5,700 2,618 Climbing FlightAware ADS-B
Sun 04:35:08 PM 45.7080 8.8940 107° East 274 315 7,000 2,600 Climbing FlightAware ADS-B
Sun 04:35:38 PM 45.6970 8.9490 106° East 282 325 8,300 2,727 Climbing FlightAware ADS-B
Sun 04:36:03 PM 45.6870 8.9990 106° East 289 333 9,500 2,057 Climbing FlightAware ADS-B
Sun 04:36:48 PM 45.6700 9.0840 106° East 319 367 10,700 1,271 Climbing FlightAware ADS-B
Sun 04:37:28 PM 45.6510 9.1720 107° East 362 417 11,300 1,500 Climbing FlightAware ADS-B
Sun 04:38:08 PM 45.6320 9.2670 106° East 373 429 12,700 2,329 Climbing FlightAware ADS-B
Sun 04:38:53 PM 45.6100 9.3740 106° East 373 429 14,600 2,259 Climbing FlightAware ADS-B
Sun 04:39:33 PM 45.5900 9.4690 107° East 379 436 15,900 2,025 Climbing FlightAware ADS-B
Sun 04:40:13 PM 45.5700 9.5650 107° East 381 438 17,300 1,760 Climbing FlightAware ADS-B
Sun 04:40:48 PM 45.5520 9.6500 107° East 395 455 18,100 1,350 Climbing FlightAware ADS-B
Sun 04:41:33 PM 45.5290 9.7670 106° East 413 475 19,100 1,412 Climbing FlightAware ADS-B
Sun 04:42:13 PM 45.5110 9.8740 103° East 419 482 20,100 1,694 Climbing FlightAware ADS-B
Sun 04:42:58 PM 45.4910 9.9910 104° East 418 481 21,500 1,553 Climbing FlightAware ADS-B
Sun 04:43:38 PM 45.4720 10.1010 104° East 428 493 22,300 1,200 Climbing FlightAware ADS-B
Sun 04:44:18 PM 45.4530 10.2110 104° East 434 499 23,100 1,271 Climbing FlightAware ADS-B
Sun 04:45:03 PM 45.4310 10.3370 104° East 438 504 24,100 1,280 Climbing FlightAware ADS-B
Sun 04:45:33 PM 45.4160 10.4240 104° East 443 510 24,700 1,114 Climbing FlightAware ADS-B
Sun 04:46:13 PM 45.3950 10.5380 105° East 450 518 25,400 1,050 Climbing FlightAware ADS-B
Sun 04:46:53 PM 45.3760 10.6490 104° East 454 522 26,100 1,050 Climbing FlightAware ADS-B
Sun 04:47:33 PM 45.3540 10.7690 105° East 460 529 26,800 988 Climbing FlightAware ADS-B
Sun 04:48:18 PM 45.3310 10.8970 104° East 465 535 27,500 918 Climbing FlightAware ADS-B
Sun 04:48:58 PM 45.3100 11.0160 104° East 470 541 28,100 825 Climbing FlightAware ADS-B
Sun 04:49:38 PM 45.2880 11.1330 105° East 477 549 28,600 847 Climbing FlightAware ADS-B
Sun 04:50:23 PM 45.2620 11.2730 105° East 479 551 29,300 1,125 Climbing FlightAware ADS-B
Sun 04:50:58 PM 45.2440 11.3720 104° East 475 547 30,100 1,125 Climbing FlightAware ADS-B
Sun 04:51:43 PM 45.2220 11.4920 105° East 473 544 30,800 988 Climbing FlightAware ADS-B
Sun 04:52:23 PM 45.1990 11.6140 105° East 473 544 31,500 1,125 Climbing FlightAware ADS-B
Sun 04:53:03 PM 45.1760 11.7320 105° East 467 537 32,300 1,067 Climbing FlightAware ADS-B
Sun 04:53:53 PM 45.1500 11.8690 105° East 466 536 33,100 847 Climbing FlightAware ADS-B
Sun 04:54:28 PM 45.1290 11.9830 105° East 467 537 33,500 706 Climbing FlightAware ADS-B
Sun 04:55:18 PM 45.0970 12.1470 105° East 469 540 34,100 867 Climbing FlightAware ADS-B
Sun 04:55:58 PM 45.0750 12.2660 105° East 463 533 34,800 635 Climbing FlightAware ADS-B
Sun 04:56:43 PM 45.0590 12.3950 100° East 457 526 35,000 141 Climbing FlightAware ADS-B
Sun 04:57:23 PM 45.0350 12.5120 106° East 465 535 35,000  Level FlightAware ADS-B
Sun 04:58:03 PM 44.9920 12.6210 119° Southeast 471 542 35,000  Level FlightAware ADS-B
Sun 04:58:48 PM 44.9450 12.7400 119° Southeast 466 536 35,000  Level FlightAware ADS-B
Sun 04:59:28 PM 44.9020 12.8480 119° Southeast 463 533 35,000  Level FlightAware ADS-B
Sun 05:00:08 PM 44.8610 12.9510 119° Southeast 462 532 35,000  Level FlightAware ADS-B
Sun 05:00:53 PM 44.8140 13.0680 119° Southeast 463 533 35,000  Level FlightAware ADS-B
Sun 05:01:33 PM 44.7730 13.1700 119° Southeast 465 535 35,000  Level FlightAware ADS-B
Sun 05:02:18 PM 44.7230 13.2930 120° Southeast 465 535 35,000  Level FlightAware ADS-B
Sun 05:02:58 PM 44.6790 13.4000 120° Southeast 469 540 35,000  Level FlightAware ADS-B
Sun 05:03:43 PM 44.6320 13.5170 119° Southeast 471 542 35,000 71 Level FlightAware ADS-B
Sun 05:04:23 PM 44.5870 13.6250 120° Southeast 472 543 35,100 75 Climbing FlightAware ADS-B
Sun 05:05:03 PM 44.5430 13.7330 120° Southeast 470 541 35,100 -71 Level FlightAware ADS-B
Sun 05:05:48 PM 44.4940 13.8500 120° Southeast 469 540 35,000 -71 Descending FlightAware ADS-B
Sun 05:06:28 PM 44.4500 13.9580 120° Southeast 468 539 35,000  Level FlightAware ADS-B
Sun 05:07:13 PM 44.4000 14.0770 120° Southeast 469 540 35,000  Level FlightAware ADS-B
Sun 05:07:53 PM 44.3560 14.1810 121° Southeast 469 540 35,000  Level FlightAware ADS-B
Sun 05:08:33 PM 44.3120 14.2860 120° Southeast 473 544 35,000  Level FlightAware ADS-B
Sun 05:09:18 PM 44.2630 14.4040 120° Southeast 473 544 35,000  Level FlightAware ADS-B
Sun 05:09:58 PM 44.2170 14.5110 121° Southeast 473 544 35,000  Level FlightAware ADS-B
Sun 05:10:43 PM 44.1670 14.6290 121° Southeast 472 543 35,000  Level FlightAware ADS-B
Sun 05:11:23 PM 44.1230 14.7320 121° Southeast 471 542 35,000  Level FlightAware ADS-B
Sun 05:12:03 PM 44.0780 14.8370 121° Southeast 472 543 35,000  Level FlightAware ADS-B
Sun 05:12:48 PM 44.0270 14.9560 121° Southeast 472 543 35,000  Level FlightAware ADS-B
Sun 05:13:28 PM 43.9840 15.0570 121° Southeast 473 544 35,000  Level FlightAware ADS-B
Sun 05:14:13 PM 43.9330 15.1740 121° Southeast 472 543 35,000  Level FlightAware ADS-B
Sun 05:14:48 PM 43.8930 15.2660 121° Southeast 472 543 35,000  Level FlightAware ADS-B
Sun 05:15:43 PM 43.8280 15.4160 121° Southeast 472 543 35,000  Level FlightAware ADS-B
Sun 05:16:23 PM 43.7840 15.5160 121° Southeast 472 543 35,000  Level FlightAware ADS-B
Sun 05:17:18 PM 43.7230 15.6550 121° Southeast 471 542 35,000  Level FlightAware ADS-B
Sun 05:17:58 PM 43.6740 15.7640 122° Southeast 473 544 35,000  Level FlightAware ADS-B
Sun 05:18:43 PM 43.6230 15.8800 121° Southeast 471 542 35,000  Level FlightAware ADS-B
Sun 05:19:38 PM 43.5610 16.0190 122° Southeast 474 545 35,000  Level FlightAware ADS-B
Sun 05:20:18 PM 43.5140 16.1250 121° Southeast 474 545 35,000  Level FlightAware ADS-B
Sun 05:21:03 PM 43.4630 16.2390 122° Southeast 471 542 35,000  Level FlightAware ADS-B
Sun 05:22:13 PM 43.3810 16.4200 122° Southeast 470 541 35,000  Level FlightAware ADS-B
Sun 05:23:08 PM 43.3200 16.5550 122° Southeast 470 541 35,000  Level FlightAware ADS-B
Sun 05:25:00 PM 43.2396 16.8435 111° Southeast  Level Estimated
Sun 05:25:03 PM 43.1820 16.8570 111° Southeast 479 551 35,000  Level FlightAware ADS-B
Sun 05:26:48 PM 43.0570 17.1260 122° Southeast 470 541 35,000  Level FlightAware ADS-B
Sun 05:27:28 PM 43.0110 17.2260 122° Southeast 468 539 35,000  Level FlightAware ADS-B
Sun 05:28:48 PM 42.9170 17.4280 122° Southeast 479 551 35,000  Level FlightAware ADS-B
Sun 05:29:43 PM 42.8510 17.5680 123° Southeast 483 556 35,000  Level FlightAware ADS-B
Sun 05:31:13 PM 42.7470 17.7870 123° Southeast 482 555 35,000  Level FlightAware ADS-B
Sun 05:31:53 PM 42.6980 17.8910 123° Southeast 481 554 35,000  Level FlightAware ADS-B
Sun 05:32:33 PM 42.6480 17.9950 123° Southeast 483 556 35,000  Level FlightAware ADS-B
Sun 05:33:18 PM 42.5880 18.1210 123° Southeast 484 557 35,000  Level FlightAware ADS-B
Sun 05:34:03 PM 42.5340 18.2340 123° Southeast 485 558 35,000 71 Level FlightAware ADS-B
Sun 05:34:43 PM 42.4860 18.3300 124° Southeast 489 563 35,100  Climbing FlightAware ADS-B
Sun 05:35:23 PM 42.4220 18.4270 132° Southeast 499 574 35,000 -71 Descending FlightAware ADS-B
Sun 05:36:08 PM 42.3500 18.5270 134° Southeast 497 572 35,000  Level FlightAware ADS-B
Sun 05:36:48 PM 42.2850 18.6180 134° Southeast 495 570 35,000  Level FlightAware ADS-B
Sun 05:37:33 PM 42.2130 18.7170 134° Southeast 492 566 35,000  Level FlightAware ADS-B
Sun 05:38:13 PM 42.1500 18.8040 134° Southeast 490 564 35,000  Level FlightAware ADS-B
Sun 05:38:58 PM 42.0770 18.9030 135° Southeast 490 564 35,000  Level FlightAware ADS-B
Sun 05:39:38 PM 42.0130 18.9910 134° Southeast 492 566 35,000  Level FlightAware ADS-B
Sun 05:40:18 PM 41.9520 19.0750 134° Southeast 495 570 35,000 71 Level FlightAware ADS-B
Sun 05:41:03 PM 41.8760 19.1770 135° Southeast 499 574 35,100 71 Climbing FlightAware ADS-B
Sun 05:41:43 PM 41.8130 19.2630 134° Southeast 500 575 35,100  Level FlightAware ADS-B
Sun 05:42:28 PM 41.7350 19.3590 137° Southeast 509 586 35,100 -71 Level FlightAware ADS-B
Sun 05:43:08 PM 41.6630 19.4410 140° Southeast 510 587 35,000 -75 Descending FlightAware ADS-B
Sun 05:43:48 PM 41.5870 19.5170 143° Southeast 519 597 35,000  Level FlightAware ADS-B
Sun 05:44:33 PM 41.4920 19.5880 151° Southeast 526 605 35,000  Level FlightAware ADS-B
Sun 05:45:13 PM 41.4100 19.6460 152° Southeast 527 606 35,000  Level FlightAware ADS-B
Sun 05:45:53 PM 41.3190 19.7100 152° Southeast 528 608 35,000  Level FlightAware ADS-B
Sun 05:46:38 PM 41.2210 19.7790 152° Southeast 531 611 35,000  Level FlightAware ADS-B
Sun 05:47:18 PM 41.1340 19.8400 152° Southeast 531 611 35,000  Level FlightAware ADS-B
Sun 05:48:03 PM 41.0370 19.9080 152° Southeast 531 611 35,000 71 Level FlightAware ADS-B
Sun 05:48:43 PM 40.9520 19.9670 152° Southeast 530 610 35,100  Climbing FlightAware ADS-B
Sun 05:49:23 PM 40.8660 20.0270 152° Southeast 530 610 35,000 -75 Descending FlightAware ADS-B
Sun 05:50:03 PM 40.7780 20.0890 152° Southeast 530 610 35,000  Level FlightAware ADS-B
Sun 05:50:48 PM 40.7190 20.1290 153° Southeast 531 611 35,000  Level FlightAware ADS-B
Sun 05:51:28 PM 40.6410 20.1830 152° Southeast 532 612 35,000  Level FlightAware ADS-B
Sun 05:52:08 PM 40.5540 20.2430 152° Southeast 531 611 35,000  Level FlightAware ADS-B
Sun 05:52:53 PM 40.4450 20.3180 152° Southeast 531 611 35,000  Level FlightAware ADS-B
Sun 05:53:33 PM 40.3600 20.3760 153° Southeast 531 611 35,000  Level FlightAware ADS-B
Sun 05:54:13 PM 40.2740 20.4340 153° Southeast 533 613 35,000  Level FlightAware ADS-B
Sun 05:55:03 PM 40.1610 20.5110 152° Southeast 537 618 35,000 67 Level FlightAware ADS-B
Sun 05:55:43 PM 40.0810 20.5650 153° Southeast 537 618 35,100  Climbing FlightAware ADS-B
Sun 05:56:38 PM 39.9570 20.6490 153° Southeast 534 615 35,000 -60 Descending FlightAware ADS-B
Sun 05:57:23 PM 39.8520 20.7190 153° Southeast 532 612 35,000  Level FlightAware ADS-B
Sun 05:58:03 PM 39.7630 20.7790 153° Southeast 533 613 35,000  Level FlightAware ADS-B
Sun 05:58:43 PM 39.6440 20.8590 153° Southeast 526 605 35,000  Level FlightAware ADS-B
Sun 05:59:28 PM 39.5470 20.9260 152° Southeast 527 606 35,000  Level FlightAware ADS-B
Sun 06:00:03 PM 39.4700 20.9780 152° Southeast 527 606 35,000  Level FlightAware ADS-B
Sun 06:00:53 PM 39.3610 21.0520 152° Southeast 527 606 35,000  Level FlightAware ADS-B
Sun 06:01:33 PM 39.2720 21.1130 152° Southeast 528 608 35,000  Level FlightAware ADS-B
Sun 06:02:13 PM 39.1840 21.1720 153° Southeast 529 609 35,000  Level FlightAware ADS-B
Sun 06:02:53 PM 39.0990 21.2300 152° Southeast 530 610 35,000  Level FlightAware ADS-B
Sun 06:03:38 PM 38.9920 21.3010 153° Southeast 540 621 35,000  Level FlightAware ADS-B
Sun 06:04:23 PM 38.8880 21.3710 152° Southeast 540 621 35,000  Level FlightAware ADS-B
Sun 06:05:03 PM 38.8010 21.4290 153° Southeast 539 620 35,000  Level FlightAware ADS-B
Sun 06:05:48 PM 38.7040 21.4940 152° Southeast 538 619 35,000  Level FlightAware ADS-B
Sun 06:06:28 PM 38.6150 21.5520 153° Southeast 537 618 35,000  Level FlightAware ADS-B
Sun 06:07:13 PM 38.5150 21.6190 152° Southeast 537 618 35,000  Level FlightAware ADS-B
Sun 06:07:53 PM 38.4260 21.6770 153° Southeast 537 618 35,000  Level FlightAware ADS-B
Sun 06:08:38 PM 38.3300 21.7410 152° Southeast 536 617 35,000  Level FlightAware ADS-B
Sun 06:09:18 PM 38.2390 21.8000 153° Southeast 537 618 35,000  Level FlightAware ADS-B
Sun 06:09:58 PM 38.1520 21.8570 153° Southeast 536 617 35,000  Level FlightAware ADS-B
Sun 06:10:43 PM 38.0490 21.9240 153° Southeast 537 618 35,000  Level FlightAware ADS-B
Sun 06:11:23 PM 37.9600 21.9820 153° Southeast 535 616 35,000  Level FlightAware ADS-B
Sun 06:12:08 PM 37.8660 22.0430 153° Southeast 532 612 35,000  Level FlightAware ADS-B
Sun 06:12:48 PM 37.7770 22.1010 153° Southeast 532 612 35,000  Level FlightAware ADS-B
Sun 06:13:28 PM 37.6880 22.1580 153° Southeast 531 611 35,000  Level FlightAware ADS-B
Sun 06:14:13 PM 37.5930 22.2190 153° Southeast 532 612 35,000  Level FlightAware ADS-B
Sun 06:14:53 PM 37.5010 22.2780 153° Southeast 532 612 35,000  Level FlightAware ADS-B
Sun 06:15:33 PM 37.4120 22.3350 153° Southeast 533 613 35,000  Level FlightAware ADS-B
Sun 06:16:18 PM 37.3170 22.3950 153° Southeast 533 613 35,000  Level FlightAware ADS-B
Sun 06:16:58 PM 37.2270 22.4520 153° Southeast 533 613 35,000  Level FlightAware ADS-B
Sun 06:17:43 PM 37.1260 22.5160 153° Southeast 533 613 35,000  Level FlightAware ADS-B
Sun 06:18:23 PM 37.0370 22.5720 153° Southeast 533 613 35,000  Level FlightAware ADS-B
Sun 06:19:08 PM 36.9420 22.6320 153° Southeast 532 612 35,000  Level FlightAware ADS-B
Sun 06:19:48 PM 36.8540 22.6870 153° Southeast 532 612 35,000  Level FlightAware ADS-B
Sun 06:20:28 PM 36.7680 22.7400 154° Southeast 531 611 35,000  Level FlightAware ADS-B
Sun 06:21:13 PM 36.6620 22.8060 153° Southeast 529 609 35,000  Level FlightAware ADS-B
Sun 06:21:53 PM 36.5780 22.8580 154° Southeast 528 608 35,000  Level FlightAware ADS-B
Sun 06:22:33 PM 36.4890 22.9140 153° Southeast 526 605 35,000  Level FlightAware ADS-B
Sun 06:23:33 PM 36.3710 22.9880 153° Southeast 525 604 35,000  Level FlightAware ADS-B
Sun 06:24:13 PM 36.2980 23.0340 153° Southeast 525 604 35,000  Level FlightAware ADS-B
Sun 06:24:48 PM 36.2010 23.0910 155° Southeast 519 597 35,000  Level FlightAware ADS-B
Sun 06:25:33 PM 36.1120 23.1470 153° Southeast 519 597 35,000  Level FlightAware ADS-B
Sun 06:26:18 PM 36.0040 23.2120 154° Southeast 518 596 35,000  Level FlightAware ADS-B
Sun 06:26:58 PM 35.9180 23.2650 153° Southeast 520 598 35,000  Level FlightAware ADS-B
Sun 06:27:43 PM 35.8190 23.3250 154° Southeast 519 597 35,000  Level FlightAware ADS-B
Sun 06:28:23 PM 35.7450 23.3710 153° Southeast 519 597 35,000  Level FlightAware ADS-B
Sun 06:29:08 PM 35.6370 23.4350 154° Southeast 517 595 35,000  Level FlightAware ADS-B
Sun 06:29:43 PM 35.5700 23.4770 153° Southeast 517 595 35,000  Level FlightAware ADS-B
Sun 06:30:33 PM 35.4790 23.5340 153° Southeast 517 595 35,000  Level FlightAware ADS-B
Sun 06:31:13 PM 35.4070 23.5790 153° Southeast 517 595 35,000  Level FlightAware ADS-B
Sun 06:31:53 PM 35.3340 23.6240 153° Southeast 517 595 35,000  Level FlightAware ADS-B
Sun 06:32:53 PM 35.1630 23.7210 155° Southeast 517 595 35,000  Level FlightAware ADS-B
Sun 06:33:28 PM 35.0820 23.7730 152° Southeast 515 593 35,000  Level FlightAware ADS-B
Sun 06:34:13 PM 34.9950 23.8290 152° Southeast 515 593 35,000  Level FlightAware ADS-B
Sun 06:34:53 PM 34.9240 23.8760 152° Southeast 515 593 35,000  Level FlightAware ADS-B
Sun 06:35:33 PM 34.8520 23.9220 152° Southeast 515 593 35,000  Level FlightAware ADS-B
Sun 06:36:23 PM 34.7630 23.9800 152° Southeast 515 593 35,000  Level FlightAware ADS-B
Sun 06:37:03 PM 34.6910 24.0260 152° Southeast 515 593 35,000  Level FlightAware ADS-B
Sun 06:37:43 PM 34.6200 24.0720 152° Southeast 515 593 35,000  Level FlightAware ADS-B
Sun 06:38:23 PM 34.5480 24.1190 152° Southeast 515 593 35,000  Level FlightAware ADS-B
Sun 06:39:03 PM 34.4770 24.1650 152° Southeast 515 593 35,000  Level FlightAware ADS-B
Sun 06:39:53 PM 34.3870 24.2220 152° Southeast 515 593 35,000  Level FlightAware ADS-B
Sun 06:40:33 PM 34.3160 24.2690 151° Southeast 515 593 35,000  Level FlightAware ADS-B
Sun 06:41:13 PM 34.2440 24.3150 152° Southeast 515 593 35,000  Level FlightAware ADS-B
Sun 06:41:53 PM 34.1730 24.3610 152° Southeast 515 593 35,000  Level FlightAware ADS-B
Sun 06:42:33 PM 34.1010 24.4060 153° Southeast 515 593 35,000  Level FlightAware ADS-B
Sun 06:43:13 PM 34.0300 24.4520 152° Southeast 515 593 35,000 -110 Level FlightAware ADS-B
Sun 06:45:00 PM 33.9806 24.7042 103° East  Level Estimated
Sun 06:46:00 PM 33.9527 24.8456 103° East  Level Estimated
Sun 06:47:00 PM 33.9246 24.9868 103° East  Level Estimated
Sun 06:48:00 PM 33.8963 25.1279 104° East  Level Estimated
Sun 06:49:00 PM 33.8679 25.2689 104° East  Level Estimated
Sun 06:50:00 PM 33.8394 25.4099 104° East  Level Estimated
Sun 06:51:00 PM 33.8106 25.5507 104° East  Level Estimated
Sun 06:52:00 PM 33.7817 25.6915 104° East  Level Estimated
Sun 06:53:00 PM 33.7527 25.8321 104° East  Level Estimated
Sun 06:54:00 PM 33.7235 25.9727 104° East  Level Estimated
Sun 06:55:00 PM 33.6941 26.1131 104° East  Level Estimated
Sun 06:56:00 PM 33.6646 26.2535 104° East  Level Estimated
Sun 06:57:00 PM 33.6349 26.3938 104° East  Level Estimated
Sun 06:58:00 PM 33.6051 26.5339 104° East  Level Estimated
Sun 06:59:00 PM 33.5751 26.6740 104° East  Level Estimated
Sun 07:00:00 PM 33.5449 26.8140 104° East  Level Estimated
Sun 07:01:00 PM 33.5146 26.9539 105° East  Level Estimated
Sun 07:02:00 PM 33.4841 27.0937 105° East  Level Estimated
Sun 07:03:00 PM 33.4535 27.2333 105° East  Level Estimated
Sun 07:04:00 PM 33.4227 27.3729 105° East  Level Estimated
Sun 07:05:00 PM 33.3918 27.5124 105° East  Level Estimated
Sun 07:06:00 PM 33.3606 27.6518 105° East  Level Estimated
Sun 07:07:00 PM 33.3294 27.7911 105° East  Level Estimated
Sun 07:08:00 PM 33.2980 27.9303 105° East  Level Estimated
Sun 07:09:00 PM 33.2664 28.0694 105° East  Level Estimated
Sun 07:10:00 PM 33.2347 28.2084 105° East  Level Estimated
Sun 07:11:00 PM 33.2028 28.3472 105° East  Level Estimated
Sun 07:12:00 PM 33.1708 28.4860 105° East  Level Estimated
Sun 07:13:00 PM 33.1386 28.6247 105° East  Level Estimated
Sun 07:14:00 PM 33.1063 28.7633 106° East  Level Estimated
Sun 07:15:00 PM 33.0738 28.9018 106° East  Level Estimated
Sun 07:16:00 PM 33.0412 29.0401 106° East  Level Estimated
Sun 07:17:00 PM 33.0084 29.1784 106° East  Level Estimated
Sun 07:18:00 PM 32.9754 29.3166 106° East  Level Estimated
Sun 07:19:00 PM 32.9423 29.4546 106° East  Level Estimated
Sun 07:20:00 PM 32.9091 29.5926 106° East  Level Estimated
Sun 07:21:00 PM 32.8757 29.7305 106° East  Level Estimated
Sun 07:22:00 PM 32.8421 29.8682 106° East  Level Estimated
Sun 07:23:00 PM 32.8084 30.0059 106° East  Level Estimated
Sun 07:24:00 PM 32.7746 30.1434 106° East  Level Estimated
Sun 07:25:00 PM 32.7406 30.2808 106° East  Level Estimated
Sun 07:26:00 PM 32.7064 30.4182 106° East  Level Estimated
Sun 07:27:00 PM 32.6721 30.5554 107° East  Level Estimated
Sun 07:28:00 PM 32.6377 30.6925 107° East  Level Estimated
Sun 07:29:00 PM 32.6031 30.8296 107° East  Level Estimated
Sun 07:30:00 PM 32.5683 30.9665 107° East  Level Estimated
Sun 07:31:00 PM 32.5334 31.1033 107° East  Level Estimated
Sun 07:32:00 PM 32.4984 31.2400 107° East  Level Estimated
Sun 07:33:00 PM 32.4632 31.3766 107° East  Level Estimated
Sun 07:34:00 PM 32.4278 31.5131 107° East  Level Estimated
Sun 07:35:00 PM 32.3924 31.6494 107° East  Level Estimated
Sun 07:36:00 PM 32.3567 31.7857 107° East  Level Estimated
Sun 07:37:00 PM 32.3209 31.9219 107° East  Level Estimated
Sun 07:38:00 PM 32.2850 32.0579 107° East  Level Estimated
Sun 07:39:00 PM 32.2490 32.1939 107° East  Level Estimated
Sun 07:40:00 PM 32.2127 32.3297 107° East  Level Estimated
Sun 07:41:00 PM 32.1764 32.4655 108° East  Level Estimated
Sun 07:42:00 PM 32.1399 32.6011 108° East  Level Estimated
Sun 07:43:00 PM 32.1032 32.7366 108° East  Level Estimated
Sun 07:44:00 PM 32.0664 32.8720 108° East  Level Estimated
Sun 07:45:00 PM 32.0295 33.0073 108° East  Level Estimated
Sun 07:46:00 PM 31.9924 33.1425 108° East  Level Estimated
Sun 07:47:00 PM 31.9552 33.2776 108° East  Level Estimated
Sun 07:48:00 PM 31.9178 33.4125 108° East  Level Estimated
Sun 07:49:00 PM 31.8803 33.5474 108° East  Level Estimated
Sun 07:50:00 PM 31.8426 33.6821 108° East  Level Estimated
Sun 07:51:00 PM 31.8048 33.8168 108° East  Level Estimated
Sun 07:52:00 PM 31.7669 33.9513 108° East  Level Estimated
Sun 07:53:00 PM 31.7288 34.0857 108° East  Level Estimated
Sun 07:54:00 PM 31.6906 34.2200 108° East  Level Estimated
Sun 07:55:00 PM 31.6522 34.3542 109° East  Level Estimated
Sun 07:56:00 PM 31.6137 34.4883 109° East  Level Estimated
Sun 07:57:00 PM 31.5751 34.6223 109° East  Level Estimated
Sun 07:58:00 PM 31.5363 34.7561 109° East  Level Estimated
Sun 07:59:00 PM 31.4974 34.8899 109° East  Level Estimated
Sun 08:00:00 PM 31.4583 35.0235 109° East  Level Estimated
Sun 08:01:00 PM 31.4191 35.1571 109° East  Level Estimated
Sun 08:02:00 PM 31.3798 35.2905 109° East  Level Estimated
Sun 08:03:00 PM 31.3403 35.4238 109° East  Level Estimated
Sun 08:04:00 PM 31.3007 35.5570 109° East  Level Estimated
Sun 08:05:00 PM 31.2610 35.6901 109° East  Level Estimated
Sun 08:06:00 PM 31.2211 35.8230 109° East  Level Estimated
Sun 08:07:00 PM 31.1810 35.9559 109° East  Level Estimated
Sun 08:08:00 PM 31.1409 36.0886 109° East  Level Estimated
Sun 08:09:00 PM 31.1006 36.2213 110° East  Level Estimated
Sun 08:10:00 PM 31.0602 36.3538 110° East  Level Estimated
Sun 08:11:00 PM 31.0196 36.4862 110° East  Level Estimated
Sun 08:12:00 PM 30.9789 36.6185 110° East  Level Estimated
Sun 08:13:00 PM 30.9380 36.7506 110° East  Level Estimated
Sun 08:14:00 PM 30.8971 36.8827 110° East  Level Estimated
Sun 08:15:00 PM 30.8560 37.0147 110° East  Level Estimated
Sun 08:16:00 PM 30.8147 37.1465 110° East  Level Estimated
Sun 08:17:00 PM 30.7734 37.2782 110° East  Level Estimated
Sun 08:18:00 PM 30.7319 37.4099 110° East  Level Estimated
Sun 08:19:00 PM 30.6902 37.5414 110° East  Level Estimated
Sun 08:20:00 PM 30.6485 37.6727 110° East  Level Estimated
Sun 08:21:00 PM 30.6066 37.8040 110° East  Level Estimated
Sun 08:22:00 PM 30.5645 37.9352 110° East  Level Estimated
Sun 08:23:00 PM 30.5224 38.0662 110° East  Level Estimated
Sun 08:24:00 PM 30.4800 38.1971 111° Southeast  Level Estimated
Sun 08:25:00 PM 30.4376 38.3280 111° Southeast  Level Estimated
Sun 08:26:00 PM 30.3951 38.4587 111° Southeast  Level Estimated
Sun 08:27:00 PM 30.3524 38.5892 111° Southeast  Level Estimated
Sun 08:28:00 PM 30.3095 38.7197 111° Southeast  Level Estimated
Sun 08:29:00 PM 30.2666 38.8501 111° Southeast  Level Estimated
Sun 08:30:00 PM 30.2235 38.9803 111° Southeast  Level Estimated
Sun 08:31:00 PM 30.1803 39.1105 111° Southeast  Level Estimated
Sun 08:32:00 PM 30.1370 39.2405 111° Southeast  Level Estimated
Sun 08:33:00 PM 30.0935 39.3704 111° Southeast  Level Estimated
Sun 08:34:00 PM 30.0499 39.5002 111° Southeast  Level Estimated
Sun 08:35:00 PM 30.0062 39.6298 111° Southeast  Level Estimated
Sun 08:36:00 PM 29.9624 39.7594 111° Southeast  Level Estimated
Sun 08:37:00 PM 29.9184 39.8889 111° Southeast  Level Estimated
Sun 08:38:00 PM 29.8743 40.0182 111° Southeast  Level Estimated
Sun 08:39:00 PM 29.8301 40.1474 112° Southeast  Level Estimated
Sun 08:40:00 PM 29.7858 40.2765 112° Southeast  Level Estimated
Sun 08:41:00 PM 29.7413 40.4055 112° Southeast  Level Estimated
Sun 08:42:00 PM 29.6967 40.5344 112° Southeast  Level Estimated
Sun 08:43:00 PM 29.6520 40.6631 112° Southeast  Level Estimated
Sun 08:44:00 PM 29.6071 40.7918 112° Southeast  Level Estimated
Sun 08:45:00 PM 29.5622 40.9203 112° Southeast  Level Estimated
Sun 08:46:00 PM 29.5171 41.0487 112° Southeast  Level Estimated
Sun 08:47:00 PM 29.4718 41.1770 112° Southeast  Level Estimated
Sun 08:48:00 PM 29.4265 41.3052 112° Southeast  Level Estimated
Sun 08:49:00 PM 29.3811 41.4333 112° Southeast  Level Estimated
Sun 08:50:00 PM 29.3355 41.5612 112° Southeast  Level Estimated
Sun 08:51:00 PM 29.2898 41.6891 112° Southeast  Level Estimated
Sun 08:52:00 PM 29.2439 41.8168 112° Southeast  Level Estimated
Sun 08:53:00 PM 29.1980 41.9444 112° Southeast  Level Estimated
Sun 08:54:00 PM 29.1519 42.0719 112° Southeast  Level Estimated
Sun 08:55:00 PM 29.1057 42.1993 113° Southeast  Level Estimated
Sun 08:56:00 PM 29.0594 42.3266 113° Southeast  Level Estimated
Sun 08:57:00 PM 29.0130 42.4537 113° Southeast  Level Estimated
Sun 08:58:00 PM 28.9664 42.5808 113° Southeast  Level Estimated
Sun 08:59:00 PM 28.9198 42.7077 113° Southeast  Level Estimated
Sun 09:00:00 PM 28.8730 42.8345 113° Southeast  Level Estimated
Sun 09:01:00 PM 28.8261 42.9612 113° Southeast  Level Estimated
Sun 09:02:00 PM 28.7790 43.0878 113° Southeast  Level Estimated
Sun 09:03:00 PM 28.7319 43.2143 113° Southeast  Level Estimated
Sun 09:04:00 PM 28.6846 43.3406 113° Southeast  Level Estimated
Sun 09:05:00 PM 28.6373 43.4669 113° Southeast  Level Estimated
Sun 09:06:00 PM 28.5898 43.5930 113° Southeast  Level Estimated
Sun 09:07:00 PM 28.5421 43.7190 113° Southeast  Level Estimated
Sun 09:08:00 PM 28.4944 43.8449 113° Southeast  Level Estimated
Sun 09:09:00 PM 28.4466 43.9707 113° Southeast  Level Estimated
Sun 09:10:00 PM 28.3986 44.0964 113° Southeast  Level Estimated
Sun 09:11:00 PM 28.3505 44.2219 113° Southeast  Level Estimated
Sun 09:12:00 PM 28.3023 44.3474 114° Southeast  Level Estimated
Sun 09:13:00 PM 28.2540 44.4727 114° Southeast  Level Estimated
Sun 09:14:00 PM 28.2056 44.5979 114° Southeast  Level Estimated
Sun 09:15:00 PM 28.1571 44.7230 114° Southeast  Level Estimated
Sun 09:16:00 PM 28.1084 44.8480 114° Southeast  Level Estimated
Sun 09:17:00 PM 28.0597 44.9729 114° Southeast  Level Estimated
Sun 09:18:00 PM 28.0108 45.0976 114° Southeast  Level Estimated
Sun 09:19:00 PM 27.9618 45.2223 114° Southeast  Level Estimated
Sun 09:20:00 PM 27.9127 45.3468 114° Southeast  Level Estimated
Sun 09:21:00 PM 27.8635 45.4713 114° Southeast  Level Estimated
Sun 09:22:00 PM 27.8142 45.5956 114° Southeast  Level Estimated
Sun 09:23:00 PM 27.7648 45.7198 114° Southeast  Level Estimated
Sun 09:24:00 PM 27.7152 45.8438 114° Southeast  Level Estimated
Sun 09:25:00 PM 27.6656 45.9678 114° Southeast  Level Estimated
Sun 09:26:00 PM 27.6158 46.0917 114° Southeast  Level Estimated
Sun 09:27:00 PM 27.5660 46.2154 114° Southeast  Level Estimated
Sun 09:28:00 PM 27.5160 46.3391 114° Southeast  Level Estimated
Sun 09:29:00 PM 27.4659 46.4626 115° Southeast  Level Estimated
Sun 09:30:00 PM 27.4157 46.5860 115° Southeast  Level Estimated
Sun 09:31:00 PM 27.3654 46.7093 115° Southeast  Level Estimated
Sun 09:32:00 PM 27.3150 46.8325 115° Southeast  Level Estimated
Sun 09:33:00 PM 27.2644 46.9555 115° Southeast  Level Estimated
Sun 09:34:00 PM 27.2138 47.0785 115° Southeast  Level Estimated
Sun 09:35:00 PM 27.1631 47.2014 115° Southeast  Level Estimated
Sun 09:36:00 PM 27.1122 47.3241 115° Southeast  Level Estimated
Sun 09:37:00 PM 27.0613 47.4467 115° Southeast  Level Estimated
Sun 09:38:00 PM 27.0102 47.5692 115° Southeast  Level Estimated
Sun 09:39:00 PM 26.9590 47.6916 115° Southeast  Level Estimated
Sun 09:40:00 PM 26.9078 47.8139 115° Southeast  Level Estimated
Sun 09:41:00 PM 26.8564 47.9361 115° Southeast  Level Estimated
Sun 09:42:00 PM 26.8049 48.0582 115° Southeast  Level Estimated
Sun 09:43:00 PM 26.7533 48.1801 115° Southeast  Level Estimated
Sun 09:44:00 PM 26.7016 48.3020 115° Southeast  Level Estimated
Sun 09:45:00 PM 26.6498 48.4237 115° Southeast  Level Estimated
Sun 09:46:00 PM 26.5979 48.5453 115° Southeast  Level Estimated
Sun 09:47:00 PM 26.5459 48.6669 116° Southeast  Level Estimated
Sun 09:48:00 PM 26.4938 48.7883 116° Southeast  Level Estimated
Sun 09:49:00 PM 26.4416 48.9096 116° Southeast  Level Estimated
Sun 09:50:00 PM 26.3893 49.0308 116° Southeast  Level Estimated
Sun 09:51:00 PM 26.3369 49.1519 116° Southeast  Level Estimated
Sun 09:51:13 PM 25.2650 50.7830 116° Southeast 378 435 14,300  Level FlightAware ADS-B
Sun 09:51:58 PM 25.2660 50.8670 89° East 349 402 13,700 -988 Descending FlightAware ADS-B
Sun 09:52:38 PM 25.2670 50.9360 89° East 336 387 12,900 -1,275 Descending FlightAware ADS-B
Sun 09:53:18 PM 25.2670 51.0050 90° East 330 380 12,000 -1,412 Descending FlightAware ADS-B
Sun 09:54:03 PM 25.2680 51.0800 89° East 326 375 10,900 -1,412 Descending FlightAware ADS-B
Sun 09:54:43 PM 25.2690 51.1450 89° East 318 366 10,000 -1,371 Descending FlightAware ADS-B
Sun 09:55:13 PM 25.2700 51.1940 89° East 311 358 9,300 -1,309 Descending FlightAware ADS-B
Sun 09:55:38 PM 25.2700 51.2330 90° East 302 348 8,800 -1,200 Descending FlightAware ADS-B
Sun 09:56:08 PM 25.2680 51.2760 93° East 297 342 8,200 -1,200 Descending FlightAware ADS-B
Sun 09:56:38 PM 25.2630 51.3230 97° East 295 339 7,600 -1,091 Descending FlightAware ADS-B
Sun 09:57:03 PM 25.2580 51.3620 98° East 293 337 7,200 -545 Descending FlightAware ADS-B
Sun 09:57:33 PM 25.2530 51.4050 97° East 295 339 7,100 -109 Descending FlightAware ADS-B
Sun 09:57:58 PM 25.2490 51.4430 97° East 292 336 7,100 -150 Level FlightAware ADS-B
Sun 09:58:13 PM 25.2420 51.4650 109° East 290 334 7,000 -400 Descending FlightAware ADS-B
Sun 09:58:28 PM 25.2290 51.4790 136° Southeast 279 321 6,900 -600 Descending FlightAware ADS-B
Sun 09:58:43 PM 25.2130 51.4870 156° South 263 303 6,700 -750 Descending FlightAware ADS-B
Sun 09:59:08 PM 25.1840 51.4990 159° South 239 275 6,400 -655 Descending FlightAware ADS-B
Sun 09:59:38 PM 25.1540 51.5110 160° South 220 253 6,100 -800 Descending FlightAware ADS-B
Sun 10:00:08 PM 25.1270 51.5220 160° South 207 238 5,600 -1,091 Descending FlightAware ADS-B
Sun 10:00:33 PM 25.1020 51.5320 160° South 209 241 5,100 -1,200 Descending FlightAware ADS-B
Sun 10:01:03 PM 25.0740 51.5430 160° South 211 243 4,500 -1,091 Descending FlightAware ADS-B
Sun 10:01:28 PM 25.0490 51.5530 160° South 208 239 4,100 -764 Descending FlightAware ADS-B
Sun 10:01:58 PM 25.0210 51.5630 162° South 219 252 3,800 -545 Descending FlightAware ADS-B
Sun 10:02:23 PM 24.9970 51.5720 161° South 218 251 3,600 -500 Descending FlightAware ADS-B
Sun 10:02:58 PM 24.9690 51.5950 143° Southeast 218 251 3,300 -429 Descending FlightAware ADS-B
Sun 10:03:33 PM 24.9770 51.6260 74° East 215 247 3,100 -360 Descending FlightAware ADS-B
Sun 10:03:48 PM 24.9920 51.6330 23° Northeast 202 232 3,000 -533 Descending FlightAware ADS-B
Sun 10:04:18 PM 25.0190 51.6410 15° North 204 235 2,700 -500 Descending FlightAware ADS-B
Sun 10:04:48 PM 25.0470 51.6480 13° North 185 213 2,500 -400 Descending FlightAware ADS-B
Sun 10:05:03 PM 25.0580 51.6510 14° North 179 206 2,400 -300 Descending FlightAware ADS-B
Sun 10:05:28 PM 25.0790 51.6450 345° North 159 183 2,300 -109 Descending FlightAware ADS-B
Sun 10:05:58 PM 25.1000 51.6360 339° North 156 180 2,300 -109 Level FlightAware ADS-B
Sun 10:06:23 PM 25.1180 51.6280 338° Northwest 156 180 2,200 -109 Descending FlightAware ADS-B
Sun 10:06:53 PM 25.1370 51.6200 339° North 155 178 2,200 -327 Level FlightAware ADS-B
Sun 10:07:18 PM 25.1560 51.6110 337° Northwest 144 166 1,900 -764 Descending FlightAware ADS-B
Sun 10:07:48 PM 25.1740 51.6040 341° North 126 145 1,500 -700 Descending FlightAware ADS-B
Sun 10:08:18 PM 25.1910 51.5960 337° Northwest 126 145 1,200 -327 Descending FlightAware ADS-B
Sun 10:08:43 PM 25.2040 51.5900 337° Northwest 126 145 1,200 -655 Level FlightAware ADS-B
Sun 10:09:13 PM 25.2210 51.5830 340° North 124 143 600 -982 Descending FlightAware ADS-B
Sun 10:09:38 PM 25.2340 51.5770 337° Northwest 123 142 300 -327 Descending FlightAware ADS-B
Sun 10:10:08 PM 25.2480 51.5710 339° North 124 143 300  Level FlightAware ADS-B
Sun 10:12:00 PM 25.2611 51.5651 338° Northwest  Level Estimated
Sun 10:13:00 PM 25.2611 51.5651 324° Northwest  Level Estimated
Sun 10:14:00 PM 25.2611 51.5651 324° Northwest  Level Estimated
Sun 10:15:00 PM 25.2611 51.5651 324° Northwest  Level Estimated
Sun 10:16:00 PM 25.2611 51.5651 324° Northwest  Level Estimated
Sun 10:17:00 PM 25.2611 51.5651 324° Northwest  Level Estimated
Sun 10:18:00 PM 25.2611 51.5651 324° Northwest  Level Estimated

Login

Don't have an account? Register now (free) for customized features, flight alerts, and more!